Time;durP1;ratioP1;P1;durP2;ratioP2;P2;SDS_P1;SDS_P2;PMS_P1;PMS_P2;Temp;Humidity;BMP_temperature;BMP_pressure;BME280_temperature;BME280_humidity;BME280_pressure;Samples;Min_cycle;Max_cycle;Signal;HPM_P1;HPM_P2
2022/01/27 00:01:07;;;;;;;31.75;22.30;;;5.50;99.90;;;;;;5028802;28;20517;-74
2022/01/27 00:03:44;;;;;;;36.85;22.73;;;5.60;99.90;;;;;;5028915;28;20037;-74
2022/01/27 00:06:11;;;;;;;31.70;22.08;;;5.50;99.90;;;;;;5030051;28;20041;-73
2022/01/27 00:11:09;;;;;;;36.90;21.92;;;5.50;99.90;;;;;;5029119;28;20119;-73
2022/01/27 00:13:43;;;;;;;34.78;21.15;;;5.50;99.90;;;;;;5029628;28;20053;-74
2022/01/27 00:16:13;;;;;;;28.45;21.08;;;5.50;99.90;;;;;;5028924;28;20045;-74
2022/01/27 00:18:41;;;;;;;32.40;20.42;;;5.50;99.90;;;;;;5029021;28;20393;-72
2022/01/27 00:21:06;;;;;;;32.53;21.63;;;5.50;99.90;;;;;;5028708;28;20140;-73
2022/01/27 00:23:32;;;;;;;32.55;21.23;;;5.50;99.90;;;;;;5029479;28;20132;-73
2022/01/27 00:25:58;;;;;;;31.08;20.58;;;5.50;99.90;;;;;;5028014;28;20045;-72
2022/01/27 00:28:23;;;;;;;30.10;22.15;;;5.60;99.90;;;;;;5029241;28;20050;-72
2022/01/27 00:30:49;;;;;;;32.72;21.83;;;5.60;99.90;;;;;;5028240;28;20049;-73
2022/01/27 00:33:14;;;;;;;29.25;20.40;;;5.60;99.90;;;;;;5029237;28;20126;-74
2022/01/27 00:35:40;;;;;;;31.77;21.90;;;5.50;99.90;;;;;;5028704;28;20037;-74
2022/01/27 00:38:06;;;;;;;24.95;20.00;;;5.50;99.90;;;;;;5029034;28;20132;-73
2022/01/27 00:40:31;;;;;;;29.90;22.23;;;5.50;99.90;;;;;;5012320;28;20081;-74
2022/01/27 00:42:57;;;;;;;28.85;20.20;;;5.60;99.90;;;;;;5028636;28;20045;-75
2022/01/27 00:45:24;;;;;;;29.40;21.05;;;5.50;99.90;;;;;;5029130;28;20067;-74
2022/01/27 00:47:50;;;;;;;28.45;21.08;;;5.60;99.90;;;;;;5011325;28;20481;-74
2022/01/27 00:50:18;;;;;;;33.67;21.38;;;5.60;99.90;;;;;;5029005;28;20041;-74
2022/01/27 00:52:50;;;;;;;30.70;21.25;;;5.60;99.90;;;;;;5028545;28;20071;-74
2022/01/27 00:55:17;;;;;;;25.77;19.35;;;5.60;99.90;;;;;;5012571;28;20122;-73
2022/01/27 01:00:13;;;;;;;34.92;20.27;;;5.60;99.90;;;;;;5028134;28;20057;-73
2022/01/27 01:09:16;;;;;;;30.48;19.98;;;5.60;99.90;;;;;;5032737;28;20523;-73
2022/01/27 01:19:23;;;;;;;30.38;19.38;;;5.60;99.90;;;;;;5032058;28;20053;-74
2022/01/27 01:35:08;;;;;;;30.10;19.25;;;5.80;99.90;;;;;;5031140;28;20052;-74
2022/01/27 01:37:44;;;;;;;28.55;18.20;;;5.80;99.90;;;;;;5032550;28;20051;-74
2022/01/27 01:40:16;;;;;;;33.08;18.65;;;5.80;99.90;;;;;;5016616;28;20034;-74
2022/01/27 01:42:43;;;;;;;28.17;19.50;;;5.80;99.90;;;;;;5031741;28;20132;-75
2022/01/27 01:45:17;;;;;;;28.08;17.50;;;5.70;99.90;;;;;;5014455;28;20088;-75
2022/01/27 01:47:44;;;;;;;32.67;20.00;;;5.70;99.90;;;;;;5032066;28;20045;-75
2022/01/27 01:50:11;;;;;;;29.90;19.75;;;5.70;99.90;;;;;;5014597;28;20043;-74
2022/01/27 01:52:38;;;;;;;29.80;19.48;;;5.70;99.90;;;;;;5031551;28;20050;-74
2022/01/27 01:55:05;;;;;;;27.95;19.10;;;5.80;99.90;;;;;;5031383;28;20045;-75
2022/01/27 01:57:31;;;;;;;28.58;19.00;;;5.70;99.90;;;;;;5031104;28;20121;-75
2022/01/27 01:59:58;;;;;;;29.58;18.90;;;5.70;99.90;;;;;;5031067;28;20556;-75
2022/01/27 02:02:23;;;;;;;30.50;19.65;;;5.70;99.90;;;;;;5031868;28;20132;-74
2022/01/27 02:04:49;;;;;;;30.52;19.65;;;5.70;99.90;;;;;;5014196;28;20197;-74
2022/01/27 02:07:30;;;;;;;28.95;18.80;;;5.70;99.90;;;;;;5032381;28;20126;-75
2022/01/27 02:18:09;;;;;;;31.92;19.42;;;5.50;99.90;;;;;;5030484;28;20037;-75
2022/01/27 02:20:39;;;;;;;37.03;22.00;;;5.40;99.90;;;;;;5031367;28;20053;-75
2022/01/27 02:23:06;;;;;;;30.45;21.25;;;5.30;99.90;;;;;;5030733;28;20056;-75
2022/01/27 02:25:33;;;;;;;32.10;21.70;;;5.20;99.90;;;;;;5014715;28;20049;-75
2022/01/27 02:27:59;;;;;;;32.88;22.23;;;5.20;99.90;;;;;;5030399;28;20084;-75
2022/01/27 02:30:25;;;;;;;32.60;21.05;;;5.10;99.90;;;;;;5031490;28;20128;-73
2022/01/27 02:32:52;;;;;;;33.20;21.95;;;5.10;99.90;;;;;;5037319;28;20080;-74
2022/01/27 02:35:24;;;;;;;35.13;23.88;;;5.10;99.90;;;;;;5044303;28;20049;-73
2022/01/27 02:37:50;;;;;;;33.20;23.08;;;5.20;99.90;;;;;;5030138;28;20041;-74
2022/01/27 02:40:26;;;;;;;31.02;22.05;;;5.20;99.90;;;;;;5030605;28;20037;-74
2022/01/27 02:42:53;;;;;;;29.33;21.77;;;5.20;99.90;;;;;;5013590;28;20065;-76
2022/01/27 02:45:48;;;;;;;33.80;22.90;;;5.20;99.90;;;;;;5014013;28;20041;-75
2022/01/27 02:48:14;;;;;;;30.48;22.05;;;5.30;99.90;;;;;;5030669;28;20482;-74
2022/01/27 02:50:40;;;;;;;34.35;22.90;;;5.20;99.90;;;;;;5030821;28;20129;-74
2022/01/27 02:53:09;;;;;;;39.05;24.33;;;5.30;99.90;;;;;;5029293;28;20042;-75
2022/01/27 02:55:35;;;;;;;34.15;22.33;;;5.30;99.90;;;;;;5030529;28;20084;-74
2022/01/27 02:58:02;;;;;;;30.48;22.55;;;5.30;99.90;;;;;;5029953;28;20133;-74
2022/01/27 03:00:27;;;;;;;38.22;22.85;;;5.30;99.90;;;;;;5030116;28;20096;-74
2022/01/27 03:02:53;;;;;;;36.33;24.05;;;5.30;99.90;;;;;;5030115;28;20037;-74
2022/01/27 03:05:19;;;;;;;32.35;23.52;;;5.30;99.90;;;;;;5030135;28;20038;-74
2022/01/27 03:07:48;;;;;;;37.60;24.05;;;5.30;99.90;;;;;;5029215;28;20037;-74
2022/01/27 03:10:19;;;;;;;32.58;22.67;;;5.30;99.90;;;;;;5030712;28;20492;-74
2022/01/27 03:12:49;;;;;;;35.17;22.40;;;5.40;99.90;;;;;;5030310;28;20103;-74
2022/01/27 03:15:15;;;;;;;36.80;24.35;;;5.40;99.90;;;;;;5029671;28;20512;-74
2022/01/27 03:17:41;;;;;;;33.97;22.80;;;5.40;99.90;;;;;;5029986;28;20120;-74
2022/01/27 03:20:08;;;;;;;31.73;22.40;;;5.40;99.90;;;;;;5029724;28;20048;-74
2022/01/27 03:22:34;;;;;;;31.95;22.15;;;5.40;99.90;;;;;;5013318;28;20041;-73
2022/01/27 03:25:00;;;;;;;35.08;22.52;;;5.40;99.90;;;;;;5012951;28;20130;-74
2022/01/27 03:27:27;;;;;;;33.72;22.17;;;5.50;99.90;;;;;;5031050;28;20049;-74
2022/01/27 03:29:53;;;;;;;32.85;23.13;;;5.50;99.90;;;;;;5029109;28;20520;-75
2022/01/27 03:32:19;;;;;;;36.22;22.17;;;5.50;99.90;;;;;;5030883;28;20061;-74
2022/01/27 03:34:45;;;;;;;34.45;21.92;;;5.50;99.90;;;;;;5028737;28;20085;-74
2022/01/27 03:37:11;;;;;;;36.33;22.98;;;5.50;99.90;;;;;;5014096;28;20080;-74
2022/01/27 03:39:39;;;;;;;34.88;23.30;;;5.50;99.90;;;;;;5029711;28;20531;-74
2022/01/27 03:42:06;;;;;;;34.17;22.38;;;5.50;99.90;;;;;;5028566;28;20056;-74
2022/01/27 03:44:31;;;;;;;30.20;22.38;;;5.50;99.90;;;;;;5029722;28;20063;-74
2022/01/27 03:46:58;;;;;;;34.75;22.15;;;5.50;99.90;;;;;;5029551;28;20455;-74
2022/01/27 03:49:24;;;;;;;32.33;21.80;;;5.50;99.90;;;;;;5028885;28;20084;-74
2022/01/27 03:51:50;;;;;;;30.23;21.13;;;5.50;99.90;;;;;;5012335;28;20042;-74
2022/01/27 03:54:16;;;;;;;32.90;21.10;;;5.50;99.90;;;;;;5030107;28;20053;-74
2022/01/27 03:56:42;;;;;;;30.30;22.00;;;5.50;99.90;;;;;;5029077;28;20543;-74
2022/01/27 03:59:08;;;;;;;31.80;22.40;;;5.60;99.90;;;;;;5028928;28;20041;-74
2022/01/27 04:01:35;;;;;;;33.30;22.02;;;5.60;99.90;;;;;;5012522;28;20095;-74
2022/01/27 04:04:01;;;;;;;38.63;23.45;;;5.60;99.90;;;;;;5012225;28;20046;-74
2022/01/27 04:06:36;;;;;;;32.70;23.00;;;5.60;99.90;;;;;;5029471;28;20549;-74
2022/01/27 04:09:10;;;;;;;36.95;22.17;;;5.60;99.90;;;;;;5012578;28;20064;-74
2022/01/27 04:11:38;;;;;;;34.83;22.70;;;5.60;99.90;;;;;;5028675;28;20418;-74
2022/01/27 04:14:03;;;;;;;34.95;22.13;;;5.60;99.90;;;;;;5012729;28;20041;-74
2022/01/27 04:16:29;;;;;;;34.85;23.08;;;5.60;99.90;;;;;;5029472;28;20124;-74
2022/01/27 04:18:55;;;;;;;36.30;23.75;;;5.60;99.90;;;;;;5011560;28;20080;-73
2022/01/27 04:21:21;;;;;;;31.20;22.85;;;5.60;99.90;;;;;;5029549;28;20057;-74
2022/01/27 04:23:47;;;;;;;35.88;22.63;;;5.60;99.90;;;;;;5028262;28;20049;-73
2022/01/27 04:26:16;;;;;;;36.22;23.00;;;5.60;99.90;;;;;;5029436;28;20048;-73
2022/01/27 04:28:43;;;;;;;34.47;22.98;;;5.60;99.90;;;;;;5028721;28;20128;-73
2022/01/27 04:31:10;;;;;;;35.33;21.55;;;5.60;99.90;;;;;;5028281;28;20045;-73
2022/01/27 04:33:37;;;;;;;31.15;20.55;;;5.70;99.90;;;;;;5029060;28;20053;-74
2022/01/27 04:36:10;;;;;;;34.50;19.98;;;5.70;99.90;;;;;;5031076;28;20103;-73
2022/01/27 04:38:52;;;;;;;31.20;20.38;;;5.70;99.90;;;;;;5030834;28;20049;-73
2022/01/27 04:41:34;;;;;;;31.52;20.52;;;5.70;99.90;;;;;;5033188;28;20091;-75
2022/01/27 04:44:11;;;;;;;33.87;21.50;;;5.80;99.90;;;;;;5000441;28;20091;-74
2022/01/27 04:46:46;;;;;;;28.60;18.92;;;5.80;99.90;;;;;;5013009;28;20053;-73
2022/01/27 04:49:12;;;;;;;31.88;20.80;;;5.80;99.90;;;;;;5027748;28;20394;-73
2022/01/27 04:51:38;;;;;;;34.85;21.48;;;5.80;99.90;;;;;;5032873;28;20067;-73
2022/01/27 04:56:32;;;;;;;33.00;20.77;;;5.80;99.90;;;;;;5033625;28;20504;-73
2022/01/27 04:59:02;;;;;;;32.42;20.85;;;5.80;99.90;;;;;;5014538;28;20767;-73
2022/01/27 05:01:36;;;;;;;31.77;20.23;;;5.80;99.90;;;;;;5033321;28;20122;-73
2022/01/27 05:04:08;;;;;;;36.67;20.60;;;5.90;99.90;;;;;;5032220;28;20120;-73
2022/01/27 05:06:34;;;;;;;31.92;20.65;;;5.90;99.90;;;;;;5032758;28;20052;-73
2022/01/27 05:08:59;;;;;;;36.60;20.90;;;5.90;99.90;;;;;;5031869;28;20417;-72
2022/01/27 05:11:32;;;;;;;34.30;21.02;;;5.90;99.90;;;;;;5016722;28;20041;-73
2022/01/27 05:14:14;;;;;;;36.78;21.23;;;5.90;99.90;;;;;;5031500;28;20056;-73
2022/01/27 05:16:40;;;;;;;32.72;19.95;;;5.90;99.90;;;;;;5032904;28;20568;-73
2022/01/27 05:19:06;;;;;;;33.50;17.52;;;5.90;99.90;;;;;;5032031;28;20196;-73
2022/01/27 05:21:33;;;;;;;28.75;19.15;;;5.90;99.90;;;;;;5032691;28;20045;-73
2022/01/27 05:24:00;;;;;;;31.23;18.85;;;6.00;99.90;;;;;;5015403;28;20378;-73
2022/01/27 05:26:25;;;;;;;29.73;18.33;;;6.00;99.90;;;;;;5013502;28;20049;-73
2022/01/27 05:28:51;;;;;;;28.67;18.40;;;6.00;99.90;;;;;;5018659;28;20064;-73
2022/01/27 05:31:17;;;;;;;30.75;18.75;;;6.00;99.90;;;;;;5032475;28;20386;-73
2022/01/27 05:33:42;;;;;;;30.52;16.85;;;6.10;99.90;;;;;;5015666;28;20037;-74
2022/01/27 05:36:08;;;;;;;27.98;16.90;;;6.10;99.90;;;;;;5014909;28;20065;-73
2022/01/27 05:38:35;;;;;;;26.50;17.48;;;6.10;99.90;;;;;;5032334;28;20046;-74
2022/01/27 05:41:01;;;;;;;25.30;16.88;;;6.10;99.90;;;;;;5031806;28;20077;-74
2022/01/27 05:43:27;;;;;;;29.52;16.63;;;6.20;99.90;;;;;;5031476;28;20068;-74
2022/01/27 05:45:52;;;;;;;30.30;17.73;;;6.20;99.90;;;;;;5032667;28;20494;-75
2022/01/27 05:48:18;;;;;;;25.73;17.38;;;6.20;99.90;;;;;;5014422;28;20041;-74
2022/01/27 05:50:44;;;;;;;32.83;17.23;;;6.20;99.90;;;;;;5033359;28;20038;-74
2022/01/27 05:53:09;;;;;;;29.67;17.70;;;6.20;99.90;;;;;;5033001;28;20397;-74
2022/01/27 05:55:35;;;;;;;35.70;17.98;;;6.20;99.90;;;;;;5038903;28;20042;-76
2022/01/27 05:58:00;;;;;;;30.15;17.48;;;6.20;99.90;;;;;;5031036;28;20052;-74
2022/01/27 06:00:27;;;;;;;35.53;17.52;;;6.20;99.90;;;;;;5032387;28;20049;-74
2022/01/27 06:02:54;;;;;;;33.08;18.90;;;6.10;99.90;;;;;;5029718;28;20742;-74
2022/01/27 06:05:19;;;;;;;32.25;18.73;;;6.10;99.90;;;;;;5030586;28;20050;-75
2022/01/27 06:07:45;;;;;;;32.28;18.30;;;6.10;99.90;;;;;;5030895;28;20045;-74
2022/01/27 06:10:10;;;;;;;36.40;19.33;;;6.10;99.90;;;;;;5014944;28;20409;-74
2022/01/27 06:12:54;;;;;;;35.45;20.20;;;6.10;99.90;;;;;;5014696;28;20476;-74
2022/01/27 06:15:20;;;;;;;34.15;18.48;;;6.10;99.90;;;;;;5015172;28;20052;-73
2022/01/27 06:17:46;;;;;;;31.90;18.58;;;6.00;99.90;;;;;;5013389;28;20049;-73
2022/01/27 06:20:12;;;;;;;34.97;18.58;;;6.00;99.90;;;;;;5015678;28;20397;-74
2022/01/27 06:22:38;;;;;;;36.53;18.92;;;6.00;99.90;;;;;;5038906;28;20041;-73
2022/01/27 06:25:04;;;;;;;40.17;19.90;;;6.00;99.90;;;;;;5013815;28;20401;-73
2022/01/27 06:27:30;;;;;;;39.28;20.30;;;6.00;99.90;;;;;;5014392;28;20057;-72
2022/01/27 06:29:55;;;;;;;38.35;19.75;;;5.90;99.90;;;;;;5030817;28;20049;-73
2022/01/27 06:32:21;;;;;;;41.70;19.77;;;5.90;99.90;;;;;;5030264;28;20152;-73
2022/01/27 06:34:46;;;;;;;43.92;20.02;;;6.00;99.90;;;;;;5030629;28;20054;-74
2022/01/27 06:37:13;;;;;;;37.40;18.88;;;5.90;99.90;;;;;;5031269;28;20393;-73
2022/01/27 06:39:38;;;;;;;36.35;19.75;;;5.90;99.90;;;;;;5030357;28;20064;-74
2022/01/27 06:42:05;;;;;;;41.97;22.02;;;5.90;99.90;;;;;;5014249;28;20525;-74
2022/01/27 06:44:30;;;;;;;49.22;21.10;;;5.90;99.90;;;;;;5030565;28;20414;-73
2022/01/27 06:46:56;;;;;;;42.58;19.60;;;6.00;99.90;;;;;;5030483;28;20044;-74
2022/01/27 06:49:22;;;;;;;38.92;18.40;;;6.00;99.90;;;;;;5033117;28;20135;-73
2022/01/27 06:51:48;;;;;;;39.72;19.73;;;6.00;99.90;;;;;;5029597;28;20052;-72
2022/01/27 06:54:16;;;;;;;38.28;18.10;;;6.00;99.90;;;;;;5014679;28;20052;-73
2022/01/27 06:56:43;;;;;;;33.75;17.58;;;6.10;99.90;;;;;;5014018;28;20054;-73
2022/01/27 06:59:08;;;;;;;40.78;18.70;;;6.10;99.90;;;;;;5029452;28;20079;-73
2022/01/27 07:01:34;;;;;;;37.88;18.95;;;6.10;99.90;;;;;;5029995;28;20474;-73
2022/01/27 07:04:01;;;;;;;39.40;17.83;;;6.20;99.90;;;;;;5030179;28;20053;-73
2022/01/27 07:06:26;;;;;;;40.40;17.85;;;6.20;99.90;;;;;;5030269;28;20808;-73
2022/01/27 07:08:52;;;;;;;34.38;17.00;;;6.30;99.90;;;;;;5029466;28;20107;-73
2022/01/27 07:11:18;;;;;;;29.75;16.77;;;6.30;99.90;;;;;;5030876;28;20037;-73
2022/01/27 07:13:44;;;;;;;36.15;17.67;;;6.30;99.90;;;;;;5029591;28;20088;-74
2022/01/27 07:16:10;;;;;;;30.52;17.10;;;6.40;99.90;;;;;;5030523;28;20409;-74
2022/01/27 07:18:36;;;;;;;32.53;16.02;;;6.40;99.90;;;;;;5030208;28;20045;-74
2022/01/27 07:21:04;;;;;;;34.38;16.95;;;6.40;99.90;;;;;;5012994;28;20045;-73
2022/01/27 07:23:29;;;;;;;31.17;17.05;;;6.40;99.90;;;;;;5013551;28;20054;-73
2022/01/27 07:25:55;;;;;;;33.15;16.70;;;6.50;99.90;;;;;;5029807;28;20053;-72
2022/01/27 07:28:21;;;;;;;32.45;16.75;;;6.50;99.90;;;;;;5029322;28;20046;-72
2022/01/27 07:30:46;;;;;;;35.03;16.98;;;6.50;99.90;;;;;;5029895;28;20068;-75
2022/01/27 07:33:12;;;;;;;29.80;16.45;;;6.50;99.90;;;;;;5029902;28;20395;-73
2022/01/27 07:35:38;;;;;;;29.90;16.30;;;6.50;99.90;;;;;;5029732;28;20478;-77
2022/01/27 07:38:06;;;;;;;34.08;16.98;;;6.50;99.90;;;;;;5029244;28;20128;-74
2022/01/27 07:40:32;;;;;;;31.27;17.90;;;6.60;99.90;;;;;;5031585;28;20479;-74
2022/01/27 07:42:58;;;;;;;36.75;17.08;;;6.50;99.90;;;;;;5028739;28;20113;-75
2022/01/27 07:45:24;;;;;;;30.35;16.27;;;6.60;99.90;;;;;;5040873;28;20771;-74
2022/01/27 07:47:49;;;;;;;39.00;17.27;;;6.60;99.90;;;;;;5042057;28;20489;-74
2022/01/27 07:50:15;;;;;;;32.72;17.25;;;6.60;99.90;;;;;;5013337;28;20084;-74
2022/01/27 07:52:45;;;;;;;38.20;17.83;;;6.60;99.90;;;;;;5029407;28;20132;-75
2022/01/27 07:55:11;;;;;;;29.77;15.75;;;6.60;99.90;;;;;;5012643;28;20521;-75
2022/01/27 07:57:38;;;;;;;37.83;16.15;;;6.60;99.90;;;;;;5012301;28;20087;-78
2022/01/27 08:00:05;;;;;;;36.50;17.48;;;6.60;99.90;;;;;;5029498;28;20045;-76
2022/01/27 08:02:31;;;;;;;41.22;17.55;;;6.70;99.90;;;;;;5028700;28;20037;-76
2022/01/27 08:04:57;;;;;;;35.50;17.65;;;6.70;99.90;;;;;;5012378;28;20547;-76
2022/01/27 08:07:22;;;;;;;32.92;16.60;;;6.70;99.90;;;;;;5013093;28;20406;-76
2022/01/27 08:09:48;;;;;;;35.95;16.02;;;6.70;99.90;;;;;;5012002;28;20045;-75
2022/01/27 08:12:14;;;;;;;32.28;16.20;;;6.70;99.90;;;;;;5013118;28;20099;-74
2022/01/27 08:14:40;;;;;;;32.63;15.68;;;6.70;99.90;;;;;;5012086;28;20060;-74
2022/01/27 08:17:06;;;;;;;33.53;15.75;;;6.80;99.90;;;;;;5021265;28;20045;-74
2022/01/27 08:19:32;;;;;;;33.22;15.52;;;6.80;99.90;;;;;;5028671;28;20041;-74
2022/01/27 08:21:58;;;;;;;39.00;17.23;;;6.80;99.90;;;;;;5028329;28;20060;-73
2022/01/27 08:24:23;;;;;;;35.95;15.80;;;6.80;99.90;;;;;;5028627;28;20159;-73
2022/01/27 08:26:51;;;;;;;33.28;15.73;;;6.80;99.90;;;;;;5027651;28;20045;-74
2022/01/27 08:29:30;;;;;;;38.97;17.00;;;6.80;99.90;;;;;;5026640;28;20065;-74
2022/01/27 08:31:59;;;;;;;32.83;15.70;;;6.80;99.90;;;;;;5017773;28;20053;-72
2022/01/27 08:34:32;;;;;;;33.58;16.17;;;6.80;99.90;;;;;;5028964;28;20060;-74
2022/01/27 08:37:00;;;;;;;35.53;15.25;;;6.90;99.90;;;;;;5029107;28;20079;-74
2022/01/27 08:39:27;;;;;;;31.10;13.98;;;6.90;99.90;;;;;;5030039;28;20046;-74
2022/01/27 08:41:52;;;;;;;36.70;14.57;;;6.90;99.90;;;;;;5030159;28;20049;-74
2022/01/27 08:44:18;;;;;;;32.13;13.45;;;6.90;99.90;;;;;;5029742;28;20556;-74
2022/01/27 08:46:45;;;;;;;29.00;14.57;;;6.90;99.90;;;;;;5029230;28;20052;-74
2022/01/27 08:49:10;;;;;;;34.20;14.10;;;7.00;99.90;;;;;;5013032;28;20489;-74
2022/01/27 08:51:36;;;;;;;26.33;13.45;;;7.00;99.90;;;;;;5012777;28;20052;-74
2022/01/27 08:54:02;;;;;;;30.00;13.50;;;7.10;99.90;;;;;;5030079;28;20053;-73
2022/01/27 08:56:28;;;;;;;30.65;11.68;;;7.10;99.90;;;;;;5028965;28;20042;-74
2022/01/27 08:58:55;;;;;;;22.33;11.77;;;7.20;99.90;;;;;;5028518;28;20417;-74
2022/01/27 09:01:23;;;;;;;26.67;12.18;;;7.20;99.90;;;;;;5030501;28;20030;-74
2022/01/27 09:03:48;;;;;;;20.52;10.45;;;7.30;99.90;;;;;;5027346;28;20052;-75
2022/01/27 09:06:14;;;;;;;26.35;12.30;;;7.40;99.90;;;;;;5029025;28;20041;-73
2022/01/27 09:08:40;;;;;;;24.83;10.50;;;7.40;99.90;;;;;;5027546;28;20069;-74
2022/01/27 09:11:05;;;;;;;24.67;10.52;;;7.50;99.90;;;;;;5027717;28;20059;-74
2022/01/27 09:13:31;;;;;;;22.88;9.95;;;7.50;99.90;;;;;;5010752;28;20046;-74
2022/01/27 09:16:00;;;;;;;26.88;10.20;;;7.60;99.90;;;;;;5026994;28;20103;-74
2022/01/27 09:18:25;;;;;;;24.33;10.20;;;7.60;99.90;;;;;;5027743;28;20452;-75
2022/01/27 09:20:51;;;;;;;23.42;10.05;;;7.60;99.90;;;;;;5012087;28;20049;-74
2022/01/27 09:23:17;;;;;;;19.58;9.82;;;7.70;99.90;;;;;;5012598;28;20519;-74
2022/01/27 09:25:46;;;;;;;20.08;9.52;;;7.70;99.90;;;;;;5030902;28;20053;-74
2022/01/27 09:28:12;;;;;;;26.08;9.40;;;7.80;99.90;;;;;;5031898;28;20045;-74
2022/01/27 09:30:39;;;;;;;15.57;7.35;;;7.80;99.90;;;;;;5031630;28;20116;-74
2022/01/27 09:33:05;;;;;;;24.63;8.38;;;7.80;99.90;;;;;;5031151;28;20110;-75
2022/01/27 09:35:31;;;;;;;21.42;7.97;;;7.80;99.90;;;;;;5031831;28;20489;-74
2022/01/27 09:37:58;;;;;;;17.35;7.57;;;7.90;99.90;;;;;;5019482;28;20049;-74
2022/01/27 09:40:25;;;;;;;16.13;7.95;;;7.90;99.90;;;;;;5014464;28;20100;-75
2022/01/27 09:42:53;;;;;;;17.55;6.75;;;8.00;99.90;;;;;;5014487;28;20094;-74
2022/01/27 09:45:20;;;;;;;13.38;6.90;;;8.10;99.90;;;;;;5017680;28;20541;-75
2022/01/27 09:48:00;;;;;;;17.05;6.60;;;8.10;99.90;;;;;;5029698;28;20052;-75
2022/01/27 09:53:15;;;;;;;15.40;6.43;;;8.20;99.90;;;;;;5024752;28;20049;-75
2022/01/27 09:55:41;;;;;;;18.38;6.25;;;8.30;99.90;;;;;;5031372;28;20037;-75
2022/01/27 09:58:08;;;;;;;20.20;6.35;;;8.20;99.90;;;;;;5015095;28;20496;-75
2022/01/27 10:00:34;;;;;;;16.30;5.78;;;8.30;99.90;;;;;;5031669;28;20124;-74
2022/01/27 10:03:04;;;;;;;15.82;5.43;;;8.30;99.90;;;;;;5031442;28;20534;-75
2022/01/27 10:05:30;;;;;;;18.77;6.63;;;8.30;99.90;;;;;;5032038;28;20058;-74
2022/01/27 10:08:05;;;;;;;18.90;5.30;;;8.40;99.90;;;;;;5030316;28;20043;-74
2022/01/27 10:10:45;;;;;;;12.85;5.07;;;8.40;99.90;;;;;;5031759;28;20053;-75
2022/01/27 10:13:25;;;;;;;16.98;5.43;;;8.40;99.90;;;;;;5032376;28;20561;-74
2022/01/27 10:15:51;;;;;;;21.10;6.05;;;8.40;99.90;;;;;;5014172;28;20095;-75
2022/01/27 10:18:24;;;;;;;16.15;4.72;;;8.40;99.90;;;;;;5031717;28;20095;-76
2022/01/27 10:21:07;;;;;;;16.83;5.43;;;8.40;99.90;;;;;;5013910;28;20072;-75
2022/01/27 10:23:37;;;;;;;13.75;4.95;;;8.40;99.90;;;;;;5031315;28;20045;-75
2022/01/27 10:26:13;;;;;;;15.07;4.85;;;8.40;99.90;;;;;;5014740;28;20056;-75
2022/01/27 10:31:21;;;;;;;12.52;5.15;;;8.40;99.90;;;;;;5030616;28;20052;-75
2022/01/27 10:34:03;;;;;;;17.83;5.10;;;8.50;99.90;;;;;;5010368;28;20075;-74
2022/01/27 10:36:35;;;;;;;16.77;5.18;;;8.50;99.90;;;;;;5010936;28;20049;-75
2022/01/27 10:39:05;;;;;;;14.98;4.60;;;8.60;99.90;;;;;;5030145;28;20041;-75
2022/01/27 10:41:34;;;;;;;19.98;4.78;;;8.70;99.90;;;;;;5013595;28;20571;-75
2022/01/27 10:44:16;;;;;;;13.48;4.10;;;8.70;99.90;;;;;;5012676;28;20048;-75
2022/01/27 10:47:04;;;;;;;13.20;4.38;;;8.80;99.90;;;;;;5013420;28;20052;-75
2022/01/27 10:49:32;;;;;;;14.18;4.60;;;8.80;99.90;;;;;;5029709;28;20081;-75
2022/01/27 10:51:58;;;;;;;10.32;4.30;;;8.80;99.90;;;;;;5029332;28;20076;-75
2022/01/27 10:54:36;;;;;;;13.27;4.55;;;8.90;99.90;;;;;;5030067;28;20096;-75
2022/01/27 10:57:07;;;;;;;10.35;4.22;;;8.90;99.90;;;;;;5012534;28;20041;-75
2022/01/27 10:59:34;;;;;;;12.95;4.65;;;8.90;99.90;;;;;;5013913;28;20072;-75
2022/01/27 11:02:05;;;;;;;14.93;4.80;;;9.00;99.90;;;;;;5013329;28;20397;-75
2022/01/27 11:04:34;;;;;;;13.17;4.17;;;8.90;99.90;;;;;;5029625;28;20111;-75
2022/01/27 11:07:05;;;;;;;13.85;4.45;;;9.00;99.90;;;;;;5030616;28;20129;-75
2022/01/27 11:09:37;;;;;;;9.50;3.28;;;9.00;99.90;;;;;;5029065;28;20052;-75
2022/01/27 11:12:08;;;;;;;8.70;3.33;;;9.00;99.90;;;;;;5028497;28;20128;-75
2022/01/27 11:14:35;;;;;;;8.52;3.28;;;9.10;99.90;;;;;;5017191;28;20048;-75
2022/01/27 11:17:02;;;;;;;14.68;3.47;;;9.10;99.90;;;;;;5026906;28;20042;-75
2022/01/27 11:22:04;;;;;;;9.40;2.65;;;9.30;99.90;;;;;;5028722;28;20096;-75
2022/01/27 11:27:37;;;;;;;13.13;3.40;;;9.40;99.90;;;;;;4955426;28;1087338;-74
2022/01/27 11:30:23;;;;;;;;;;;9.50;99.90;;;;;;5007703;28;20053;-75
2022/01/27 11:32:55;;;;;;;12.10;2.40;;;9.50;99.90;;;;;;5019942;28;19921;-75
2022/01/27 11:35:23;;;;;;;10.75;2.47;;;9.50;99.90;;;;;;5014039;28;20184;-75
2022/01/27 11:37:54;;;;;;;9.20;1.70;;;9.60;99.90;;;;;;5028501;28;20037;-75
2022/01/27 11:40:23;;;;;;;10.25;1.95;;;9.60;99.90;;;;;;5030240;28;20052;-75
2022/01/27 11:42:55;;;;;;;10.23;1.63;;;9.60;99.90;;;;;;5023756;28;20451;-75
2022/01/27 11:45:21;;;;;;;10.00;2.10;;;9.70;99.90;;;;;;5029250;28;20631;-75
2022/01/27 11:47:50;;;;;;;9.57;1.42;;;9.70;99.90;;;;;;5010758;28;20065;-75
2022/01/27 11:50:37;;;;;;;13.27;2.03;;;9.70;99.90;;;;;;5012256;28;20041;-75
2022/01/27 11:53:14;;;;;;;11.63;1.83;;;9.70;99.90;;;;;;5024339;28;20058;-75
2022/01/27 11:55:45;;;;;;;10.30;1.80;;;9.70;99.90;;;;;;5013017;28;20079;-75
2022/01/27 11:58:22;;;;;;;12.27;2.42;;;9.80;99.90;;;;;;5027384;28;20393;-75
2022/01/27 12:01:10;;;;;;;12.32;2.10;;;9.80;99.90;;;;;;5011498;28;20485;-75
2022/01/27 12:03:37;;;;;;;9.63;1.77;;;9.80;99.90;;;;;;5012033;28;20030;-76
2022/01/27 12:06:20;;;;;;;11.38;1.85;;;9.80;99.90;;;;;;5011004;28;20128;-74
2022/01/27 12:08:46;;;;;;;14.02;2.08;;;9.80;99.90;;;;;;5009383;28;20047;-75
2022/01/27 12:11:51;;;;;;;13.85;2.00;;;9.70;99.90;;;;;;5027472;28;20128;-74
2022/01/27 12:14:46;;;;;;;11.07;1.77;;;9.80;99.90;;;;;;4994015;28;20430;-75
2022/01/27 12:17:15;;;;;;;14.57;2.53;;;10.00;99.90;;;;;;5005325;28;20064;-75
2022/01/27 12:19:51;;;;;;;10.50;1.60;;;10.20;99.90;;;;;;5012445;28;20049;-75
2022/01/27 12:22:18;;;;;;;12.80;2.00;;;10.20;99.90;;;;;;5011762;28;20046;-75
2022/01/27 12:24:57;;;;;;;14.63;2.10;;;10.20;99.90;;;;;;5027846;28;20049;-76
2022/01/27 12:27:24;;;;;;;12.40;1.35;;;10.20;99.90;;;;;;5010064;28;20037;-76
2022/01/27 12:29:54;;;;;;;15.90;1.55;;;10.20;99.90;;;;;;5026196;28;20204;-76
2022/01/27 12:32:23;;;;;;;7.72;1.77;;;10.30;99.90;;;;;;5013043;28;20049;-76
2022/01/27 12:34:54;;;;;;;13.70;1.73;;;10.20;99.90;;;;;;5027276;28;20132;-76
2022/01/27 12:37:23;;;;;;;11.88;1.75;;;10.20;99.90;;;;;;5029480;28;20440;-75
2022/01/27 12:39:54;;;;;;;12.20;1.77;;;10.20;99.90;;;;;;5025381;28;20393;-75
2022/01/27 12:42:20;;;;;;;11.38;1.20;;;10.10;99.90;;;;;;5027943;28;20450;-75
2022/01/27 12:45:02;;;;;;;11.05;1.60;;;10.10;99.90;;;;;;5026858;28;20425;-75
2022/01/27 12:47:30;;;;;;;14.10;1.63;;;10.10;99.90;;;;;;5027161;28;20045;-75
2022/01/27 12:50:12;;;;;;;11.23;1.75;;;10.10;99.90;;;;;;5008982;28;20046;-74
2022/01/27 12:52:43;;;;;;;9.30;1.27;;;10.10;99.90;;;;;;5028251;28;20045;-75
2022/01/27 12:55:10;;;;;;;14.18;1.40;;;10.00;99.90;;;;;;5027685;28;20064;-75
2022/01/27 12:57:35;;;;;;;11.85;1.70;;;10.00;99.90;;;;;;5028341;28;20120;-75
2022/01/27 13:00:04;;;;;;;10.98;1.65;;;9.90;99.90;;;;;;5030546;28;20493;-76
2022/01/27 13:02:30;;;;;;;14.52;1.40;;;10.00;99.90;;;;;;5032260;28;20049;-75
2022/01/27 13:04:58;;;;;;;15.98;2.05;;;9.90;99.90;;;;;;5014641;28;20216;-76
2022/01/27 13:07:25;;;;;;;10.80;1.20;;;9.90;99.90;;;;;;5016723;28;20371;-75
2022/01/27 13:10:01;;;;;;;13.85;1.52;;;9.90;99.90;;;;;;5030671;28;20041;-75
2022/01/27 13:12:43;;;;;;;15.10;1.73;;;9.90;99.60;;;;;;4999296;28;20490;-75
2022/01/27 13:15:14;;;;;;;9.88;1.52;;;9.80;99.80;;;;;;5014050;28;20132;-75
2022/01/27 13:22:54;;;;;;;13.80;1.77;;;9.70;99.90;;;;;;5018038;28;20497;-75
2022/01/27 13:25:22;;;;;;;13.82;1.98;;;9.70;99.90;;;;;;5029890;28;20497;-76
2022/01/27 13:28:09;;;;;;;9.98;1.85;;;9.70;99.80;;;;;;5013950;28;20567;-75
2022/01/27 13:30:36;;;;;;;12.88;1.60;;;9.60;99.90;;;;;;5028499;28;20049;-74
2022/01/27 13:33:06;;;;;;;12.18;1.52;;;9.70;99.90;;;;;;5031892;28;20087;-75
2022/01/27 13:35:34;;;;;;;12.98;1.77;;;9.60;99.90;;;;;;5015764;28;20069;-76
2022/01/27 13:43:39;;;;;;;12.57;1.70;;;9.80;99.90;;;;;;5031325;28;20433;-74
2022/01/27 13:46:05;;;;;;;11.80;1.35;;;9.80;99.50;;;;;;5031076;28;20124;-75
2022/01/27 13:48:39;;;;;;;12.52;1.45;;;9.80;99.20;;;;;;5031702;28;20120;-74
2022/01/27 13:51:05;;;;;;;13.75;1.30;;;9.80;99.00;;;;;;5031151;28;20072;-76
2022/01/27 13:53:30;;;;;;;14.00;1.23;;;9.80;98.90;;;;;;5031586;28;20046;-75